createdAt,value
2023-12-18T00:04:28.283Z,98614.75
2023-12-18T00:09:30.663Z,98608.69
2023-12-18T00:14:32.898Z,98616.00
2023-12-18T00:19:35.229Z,98609.59
2023-12-18T00:24:37.420Z,98602.78
2023-12-18T00:29:40.927Z,98627.06
2023-12-18T00:34:43.323Z,98590.06
2023-12-18T00:39:45.581Z,98606.75
2023-12-18T00:44:47.738Z,98606.25
2023-12-18T00:49:50.202Z,98605.09
2023-12-18T00:54:52.476Z,98607.28
2023-12-18T00:59:54.639Z,98608.41
2023-12-18T01:04:56.888Z,98601.50
2023-12-18T01:10:00.071Z,98595.03
2023-12-18T01:15:02.443Z,98606.72
2023-12-18T01:20:08.764Z,98595.13
2023-12-18T01:25:11.192Z,98582.63
2023-12-18T01:30:14.062Z,98601.13
2023-12-18T01:35:16.474Z,98606.56
2023-12-18T01:40:19.410Z,98596.41
2023-12-18T01:45:21.576Z,98581.22
2023-12-18T01:50:23.952Z,98581.22
2023-12-18T01:55:26.332Z,98570.47
2023-12-18T02:00:28.954Z,98555.34
2023-12-18T02:05:31.333Z,98550.66
2023-12-18T02:10:34.841Z,98542.94
2023-12-18T02:15:37.280Z,98560.19
2023-12-18T02:20:43.183Z,98545.09
2023-12-18T02:25:45.597Z,98534.28
2023-12-18T02:30:47.918Z,98528.78
2023-12-18T02:35:50.219Z,98531.31
2023-12-18T02:40:52.529Z,98538.75
2023-12-18T02:45:54.773Z,98540.81
2023-12-18T02:50:57.055Z,98531.75
2023-12-18T02:55:59.319Z,98540.13
2023-12-18T03:01:01.615Z,98539.06
2023-12-18T03:06:04.082Z,98538.22
2023-12-18T03:11:06.266Z,98540.44
2023-12-18T03:16:09.424Z,98551.97
2023-12-18T03:21:12.036Z,98548.28
2023-12-18T03:26:14.461Z,98545.97
2023-12-18T03:31:17.091Z,98553.78
2023-12-18T03:36:19.373Z,98549.53
2023-12-18T03:41:21.693Z,98543.34
2023-12-18T03:46:24.351Z,98541.44
2023-12-18T03:51:26.754Z,98512.19
2023-12-18T03:56:29.074Z,98532.75
2023-12-18T04:01:35.902Z,98531.56
2023-12-18T04:06:38.178Z,98536.34
2023-12-18T04:11:40.390Z,98545.16
2023-12-18T04:16:42.742Z,98555.84
2023-12-18T04:21:45.031Z,98553.50
2023-12-18T04:26:48.227Z,98556.00
2023-12-18T04:31:53.379Z,98555.72
2023-12-18T04:36:55.767Z,98556.41
2023-12-18T04:41:58.074Z,98569.59
2023-12-18T04:47:00.281Z,98571.94
2023-12-18T04:52:02.560Z,98571.25
2023-12-18T04:57:05.229Z,98568.22
2023-12-18T05:02:07.430Z,98558.59
2023-12-18T05:07:12.366Z,98564.09
2023-12-18T05:12:14.650Z,98551.59
2023-12-18T05:17:16.961Z,98580.72
2023-12-18T05:22:19.281Z,98585.94
2023-12-18T05:27:21.696Z,98564.34
2023-12-18T05:32:24.239Z,98579.06
2023-12-18T05:37:26.705Z,98573.00
2023-12-18T05:42:29.067Z,98579.19
2023-12-18T05:47:31.242Z,98567.78
2023-12-18T05:52:33.504Z,98562.84
2023-12-18T05:57:35.749Z,98563.81
2023-12-18T06:02:38.413Z,98552.94
2023-12-18T06:07:42.326Z,98533.00
2023-12-18T06:12:44.827Z,98553.63
2023-12-18T06:17:47.339Z,98563.25
2023-12-18T06:22:49.652Z,98569.13
2023-12-18T06:27:51.930Z,98561.16
2023-12-18T06:32:54.244Z,98582.88
2023-12-18T06:37:56.571Z,98575.88
2023-12-18T06:42:58.738Z,98577.22
2023-12-18T06:48:01.209Z,98580.53
2023-12-18T06:53:03.585Z,98590.25
2023-12-18T06:58:05.899Z,98590.13
2023-12-18T07:03:08.368Z,98563.28
2023-12-18T07:08:10.853Z,98587.34
2023-12-18T07:13:13.353Z,98577.59
2023-12-18T07:18:15.835Z,98575.81
2023-12-18T07:23:18.309Z,98581.81
2023-12-18T07:28:21.024Z,98569.16
2023-12-18T07:33:23.339Z,98581.81
2023-12-18T07:38:25.661Z,98579.81
2023-12-18T07:43:28.066Z,98593.19
2023-12-18T07:48:33.539Z,98574.34
2023-12-18T07:53:35.879Z,98584.28
2023-12-18T07:58:38.070Z,98578.31
2023-12-18T08:03:40.430Z,98570.63
2023-12-18T08:08:43.504Z,98560.22
2023-12-18T08:13:47.481Z,98551.13
2023-12-18T08:18:50.384Z,98566.63
2023-12-18T08:23:52.712Z,98561.28
2023-12-18T08:28:54.997Z,98568.41
2023-12-18T08:33:57.703Z,98567.34
2023-12-18T08:39:00.100Z,98571.41
2023-12-18T08:44:05.718Z,98567.19
2023-12-18T08:49:09.244Z,98546.31
2023-12-18T08:54:11.537Z,98558.03
2023-12-18T08:59:13.783Z,98550.72
2023-12-18T09:04:16.080Z,98549.16
2023-12-18T09:09:18.356Z,98546.50
2023-12-18T09:14:21.023Z,98554.63
2023-12-18T09:19:23.226Z,98559.19
2023-12-18T09:24:27.097Z,98564.31
2023-12-18T09:29:29.375Z,98565.72
2023-12-18T09:34:31.778Z,98545.06
2023-12-18T09:39:34.092Z,98543.78
2023-12-18T09:44:36.381Z,98544.03
2023-12-18T09:49:38.857Z,98533.84
2023-12-18T09:54:44.199Z,98536.44
2023-12-18T09:59:47.093Z,98529.25
2023-12-18T10:04:49.431Z,98524.69
2023-12-18T10:09:51.696Z,98527.31
2023-12-18T10:14:53.884Z,98525.44
2023-12-18T10:19:56.213Z,98520.50
2023-12-18T10:25:00.465Z,98525.13
2023-12-18T10:30:02.647Z,98527.38
2023-12-18T10:35:07.201Z,98522.00
2023-12-18T10:40:13.221Z,98522.38
2023-12-18T10:45:16.004Z,98527.31
2023-12-18T10:50:19.669Z,98520.81
2023-12-18T10:55:22.523Z,98527.31
2023-12-18T11:00:25.183Z,98526.88
2023-12-18T11:05:28.077Z,98529.47
2023-12-18T11:10:30.837Z,98545.53
2023-12-18T11:15:52.119Z,98536.38
2023-12-18T11:20:54.919Z,98522.09
2023-12-18T11:25:58.383Z,98532.78
2023-12-18T11:31:02.689Z,98536.06
2023-12-18T11:36:06.942Z,98532.16
2023-12-18T11:41:58.173Z,98538.00
2023-12-18T11:47:00.557Z,98533.47
2023-12-18T11:52:18.734Z,98542.06
2023-12-18T11:57:22.672Z,98553.38
2023-12-18T12:02:25.598Z,98556.50
2023-12-18T12:07:27.821Z,98557.66
2023-12-18T12:12:31.612Z,98560.66
2023-12-18T12:17:34.916Z,98555.72
2023-12-18T12:22:37.167Z,98527.81
2023-12-18T12:27:39.790Z,98550.81
2023-12-18T12:32:42.278Z,98550.16
2023-12-18T12:37:45.354Z,98547.00
2023-12-18T12:42:48.772Z,98550.16
2023-12-18T12:47:51.234Z,98549.50
2023-12-18T12:52:53.424Z,98548.00
2023-12-18T12:57:55.819Z,98548.66
2023-12-18T13:02:58.141Z,98542.75
2023-12-18T13:08:01.756Z,98527.69
2023-12-18T13:13:04.338Z,98519.75
2023-12-18T13:18:06.859Z,98540.78
2023-12-18T13:23:09.121Z,98540.63
2023-12-18T13:28:11.487Z,98549.78
2023-12-18T13:33:13.979Z,98562.44
2023-12-18T13:38:16.760Z,98566.56
2023-12-18T13:43:19.007Z,98555.91
2023-12-18T13:48:21.656Z,98550.56
2023-12-18T13:53:24.123Z,98555.63
2023-12-18T13:58:26.334Z,98559.22
2023-12-18T14:03:28.789Z,98556.78
2023-12-18T14:08:31.939Z,98556.78
2023-12-18T14:13:34.121Z,98554.94
2023-12-18T14:18:36.582Z,98561.50
2023-12-18T14:23:38.835Z,98558.22
2023-12-18T14:28:41.160Z,98573.16
2023-12-18T14:33:43.508Z,98583.03
2023-12-18T14:38:45.967Z,98594.66
2023-12-18T14:43:48.248Z,98581.84
2023-12-18T14:48:50.650Z,98595.69
2023-12-18T14:53:53.092Z,98592.91
2023-12-18T14:58:55.427Z,98578.66
2023-12-18T15:03:57.692Z,98583.91
2023-12-18T15:08:59.992Z,98558.78
2023-12-18T15:14:02.362Z,98584.06
2023-12-18T15:19:05.291Z,98577.53
2023-12-18T15:24:10.083Z,98554.53
2023-12-18T15:29:13.323Z,98590.19
2023-12-18T15:34:15.716Z,98600.63
2023-12-18T15:39:18.734Z,98604.59
2023-12-18T15:44:22.628Z,98604.44
2023-12-18T15:49:27.704Z,98596.56
2023-12-18T15:54:30.427Z,98610.19
2023-12-18T15:59:32.819Z,98615.25
2023-12-18T16:04:35.076Z,98600.03
2023-12-18T16:09:37.773Z,98592.00
2023-12-18T16:14:40.025Z,98603.81
2023-12-18T16:19:42.520Z,98590.19
2023-12-18T16:24:44.892Z,98591.31
2023-12-18T16:29:47.132Z,98598.69
2023-12-18T16:34:49.632Z,98602.94
2023-12-18T16:39:55.349Z,98604.59
2023-12-18T16:44:58.557Z,98604.66
2023-12-18T16:50:00.805Z,98624.16
2023-12-18T16:55:03.610Z,98630.75
2023-12-18T17:00:13.201Z,98632.22
2023-12-18T17:05:16.428Z,98637.81
2023-12-18T17:10:18.652Z,98620.75
2023-12-18T17:15:22.217Z,98613.84
2023-12-18T17:20:25.342Z,98622.41
2023-12-18T17:25:27.978Z,98630.28
2023-12-18T17:30:30.534Z,98636.19
2023-12-18T17:35:33.026Z,98639.66
2023-12-18T17:40:36.042Z,98645.69
2023-12-18T17:45:38.299Z,98627.81
2023-12-18T17:50:40.505Z,98646.34
2023-12-18T17:55:42.860Z,98638.16
2023-12-18T18:00:45.145Z,98649.63
2023-12-18T18:05:47.440Z,98639.97
2023-12-18T18:10:49.726Z,98634.22
2023-12-18T18:15:54.501Z,98625.84
2023-12-18T18:20:56.841Z,98618.44
2023-12-18T18:25:59.137Z,98600.06
2023-12-18T18:31:04.762Z,98629.13
2023-12-18T18:36:08.601Z,98630.22
2023-12-18T18:41:10.977Z,98632.03
2023-12-18T18:46:14.366Z,98636.31
2023-12-18T18:51:16.694Z,98637.94
2023-12-18T18:56:19.423Z,98638.47
2023-12-18T19:01:22.225Z,98647.47
2023-12-18T19:06:24.561Z,98648.00
2023-12-18T19:11:27.020Z,98644.91
2023-12-18T19:16:29.413Z,98642.06
2023-12-18T19:21:31.653Z,98642.28
2023-12-18T19:26:33.900Z,98652.31
2023-12-18T19:31:48.523Z,98650.53
2023-12-18T19:36:50.895Z,98669.56
2023-12-18T19:41:54.116Z,98662.38
2023-12-18T19:46:56.549Z,98636.56
2023-12-18T19:51:58.842Z,98654.16
2023-12-18T19:57:01.117Z,98668.06
2023-12-18T20:02:05.031Z,98663.94
2023-12-18T20:07:07.299Z,98675.13
2023-12-18T20:12:09.509Z,98677.75
2023-12-18T20:17:11.699Z,98689.38
2023-12-18T20:22:14.026Z,98690.88
2023-12-18T20:27:16.646Z,98673.31
2023-12-18T20:32:19.104Z,98693.34
2023-12-18T20:37:21.495Z,98690.88
2023-12-18T20:42:23.720Z,98691.19
2023-12-18T20:47:25.882Z,98703.50
2023-12-18T20:52:28.164Z,98694.50
2023-12-18T20:57:30.937Z,98697.78
2023-12-18T21:02:33.129Z,98700.88
2023-12-18T21:07:35.338Z,98702.88
2023-12-18T21:12:37.594Z,98702.72
2023-12-18T21:17:39.910Z,98700.75
2023-12-18T21:22:42.485Z,98700.91
2023-12-18T21:27:45.440Z,98713.06
2023-12-18T21:32:48.793Z,98715.91
2023-12-18T21:37:51.058Z,98717.84
2023-12-18T21:42:53.308Z,98728.22
2023-12-18T21:47:55.778Z,98724.44
2023-12-18T21:52:58.058Z,98733.16
2023-12-18T21:58:00.745Z,98727.22
2023-12-18T22:03:03.119Z,98729.84
2023-12-18T22:08:06.718Z,98741.66
2023-12-18T22:13:09.081Z,98738.06
2023-12-18T22:18:11.559Z,98742.69
2023-12-18T22:23:14.054Z,98744.94
2023-12-18T22:28:16.845Z,98734.75
2023-12-18T22:33:19.293Z,98722.09
2023-12-18T22:38:22.200Z,98740.53
2023-12-18T22:43:25.326Z,98735.94
2023-12-18T22:48:27.710Z,98735.78
2023-12-18T22:53:30.127Z,98733.47
2023-12-18T22:58:32.437Z,98734.44
2023-12-18T23:03:34.669Z,98731.50
2023-12-18T23:08:36.899Z,98731.50
2023-12-18T23:13:39.054Z,98731.50
2023-12-18T23:18:41.319Z,98731.97
2023-12-18T23:23:43.627Z,98734.59
2023-12-18T23:28:45.770Z,98741.84
2023-12-18T23:33:48.754Z,98745.16
2023-12-18T23:38:51.200Z,98757.28
2023-12-18T23:43:53.409Z,98757.13
2023-12-18T23:48:55.844Z,98772.72
2023-12-18T23:53:58.091Z,98771.75
2023-12-18T23:59:00.339Z,98774.69
